createdAt,value
2018-10-11T08:01:29.167Z,15.80
2018-10-11T08:06:50.898Z,15.10
2018-10-11T08:11:51.770Z,13.10
2018-10-11T08:17:01.189Z,14.80
2018-10-11T08:22:16.995Z,14.70
2018-10-11T08:27:12.505Z,13.50
2018-10-11T08:32:20.111Z,14.30
2018-10-11T08:37:27.773Z,14.40
2018-10-11T08:43:01.588Z,14.30
2018-10-11T08:48:04.214Z,13.40
2018-10-11T08:53:09.320Z,14.00
2018-10-11T08:58:17.576Z,13.30
2018-10-11T09:03:43.395Z,13.80
2018-10-11T09:08:45.068Z,13.10
2018-10-11T09:13:40.842Z,12.60
2018-10-11T09:18:48.884Z,15.50
2018-10-11T09:23:50.921Z,13.70
2018-10-11T09:28:46.873Z,12.10
2018-10-11T09:33:51.435Z,13.10
2018-10-11T09:38:50.721Z,11.30
2018-10-11T09:43:47.784Z,11.80
2018-10-11T09:48:47.288Z,11.70
2018-10-11T09:53:46.276Z,10.60
2018-10-11T09:58:44.994Z,10.10
2018-10-11T10:03:47.856Z,10.90
2018-10-11T10:08:48.977Z,10.90
2018-10-11T10:13:44.030Z,12.00
2018-10-11T10:18:43.106Z,11.10
2018-10-11T10:23:41.298Z,11.00
2018-10-11T10:28:40.151Z,9.60
2018-10-11T10:33:44.672Z,9.80
2018-10-11T10:38:42.526Z,10.00
2018-10-11T10:43:41.240Z,8.90
2018-10-11T10:48:40.136Z,8.10
2018-10-11T10:53:38.973Z,8.50
2018-10-11T10:58:35.129Z,8.70
2018-10-11T11:03:31.071Z,5.90
2018-10-11T11:08:30.306Z,5.70
2018-10-11T11:13:25.855Z,6.10
2018-10-11T11:18:23.164Z,6.20
2018-10-11T11:23:19.323Z,5.70
2018-10-11T11:28:13.088Z,4.80
2018-10-11T11:33:10.789Z,5.70
2018-10-11T11:38:04.690Z,4.90
2018-10-11T11:42:59.578Z,4.70
2018-10-11T11:47:54.219Z,6.30
2018-10-11T11:52:51.344Z,6.00
2018-10-11T11:57:48.166Z,6.30
2018-10-11T12:02:41.555Z,6.00
2018-10-11T12:07:39.414Z,5.30
2018-10-11T12:12:35.306Z,5.50
2018-10-11T12:17:32.463Z,6.50
2018-10-11T12:22:26.630Z,6.50
2018-10-11T12:27:23.886Z,5.40
2018-10-11T12:32:22.497Z,5.60
2018-10-11T12:37:24.369Z,6.30
2018-10-11T12:42:21.630Z,6.00
2018-10-11T12:47:17.190Z,5.50
2018-10-11T12:52:14.949Z,5.30
2018-10-11T12:57:21.561Z,6.40
2018-10-11T13:02:24.933Z,6.00
2018-10-11T13:07:27.076Z,5.70
2018-10-11T13:12:33.009Z,6.00
2018-10-11T13:17:30.630Z,5.40
2018-10-11T13:22:36.874Z,6.30
2018-10-11T13:27:31.454Z,6.50
2018-10-11T13:32:28.408Z,6.30
2018-10-11T13:37:25.140Z,5.10
2018-10-11T13:42:23.662Z,5.10
2018-10-11T13:47:45.742Z,5.70
2018-10-11T13:52:50.248Z,5.80
2018-10-11T13:57:59.801Z,5.70
2018-10-11T14:02:58.246Z,5.00
2018-10-11T14:07:56.371Z,5.00
2018-10-11T14:12:59.705Z,5.30
2018-10-11T14:18:06.214Z,5.10
2018-10-11T14:23:15.187Z,5.30
2018-10-11T14:28:16.756Z,5.10
2018-10-11T14:33:19.834Z,5.60
2018-10-11T14:38:18.386Z,4.80
2018-10-11T14:43:25.861Z,4.90
2018-10-11T14:48:30.049Z,5.10
2018-10-11T14:53:37.144Z,5.40
2018-10-11T14:58:35.515Z,5.20
2018-10-11T15:03:30.803Z,5.10
2018-10-11T15:08:24.996Z,4.90
2018-10-11T15:13:21.470Z,4.90
2018-10-11T15:18:18.755Z,5.00
2018-10-11T15:23:14.976Z,4.10
2018-10-11T15:28:11.702Z,4.80
2018-10-11T15:33:07.655Z,4.90
2018-10-11T15:38:10.844Z,5.00
2018-10-11T15:43:11.970Z,5.00
2018-10-11T15:48:10.427Z,4.90
2018-10-11T15:53:11.876Z,5.30
2018-10-11T15:58:19.405Z,5.00
2018-10-11T16:03:21.196Z,5.50
2018-10-11T16:08:19.844Z,5.00
2018-10-11T16:13:18.784Z,5.30
2018-10-11T16:18:34.047Z,5.60
2018-10-11T16:23:34.318Z,5.20
2018-10-11T16:28:34.409Z,5.50
2018-10-11T16:33:48.057Z,6.50
2018-10-11T16:38:47.451Z,5.80
2018-10-11T16:44:12.773Z,5.90
2018-10-11T16:49:28.696Z,6.00
2018-10-11T16:54:34.630Z,6.50
2018-10-11T16:59:53.147Z,7.70
2018-10-11T17:05:00.344Z,7.60
2018-10-11T17:10:11.175Z,6.80
2018-10-11T17:15:17.395Z,6.20
2018-10-11T17:20:17.975Z,6.40
2018-10-11T17:25:23.460Z,6.60
2018-10-11T17:30:54.487Z,6.60
2018-10-11T17:41:36.495Z,7.30
2018-10-11T17:46:50.667Z,6.60
2018-10-11T17:51:56.613Z,6.80
2018-10-11T17:57:04.532Z,6.40
2018-10-11T18:02:16.978Z,6.90
2018-10-11T18:07:37.673Z,6.90
2018-10-11T18:12:47.823Z,6.70
2018-10-11T18:17:52.510Z,7.50
2018-10-11T18:23:03.218Z,7.10
2018-10-11T18:28:01.348Z,7.00
2018-10-11T18:33:11.041Z,7.10
2018-10-11T18:43:33.144Z,8.00
2018-10-11T18:48:44.305Z,7.80
2018-10-11T18:53:57.912Z,8.00
2018-10-11T18:59:06.102Z,7.30
2018-10-11T19:04:15.902Z,8.50
2018-10-11T19:09:24.080Z,7.90
2018-10-11T19:14:52.552Z,8.70
2018-10-11T19:19:57.725Z,8.50
2018-10-11T19:30:29.359Z,11.50
2018-10-11T19:35:46.882Z,9.60
2018-10-11T19:41:14.591Z,9.50
2018-10-11T19:46:37.080Z,9.40
2018-10-11T19:51:46.257Z,9.90
2018-10-11T19:57:14.242Z,10.30
2018-10-11T20:02:31.072Z,15.70
2018-10-11T20:07:38.506Z,10.00
2018-10-11T20:18:19.550Z,12.20
2018-10-11T20:23:35.917Z,11.30
2018-10-11T20:28:54.547Z,11.50
2018-10-11T20:34:17.107Z,11.50
2018-10-11T20:39:38.658Z,11.70
2018-10-11T20:44:52.640Z,11.40
2018-10-11T20:55:28.585Z,12.80
2018-10-11T21:00:42.590Z,11.20
2018-10-11T21:11:16.283Z,12.80
2018-10-11T21:16:24.978Z,11.40
2018-10-11T21:21:45.253Z,11.00
2018-10-11T21:32:23.938Z,12.60
2018-10-11T21:37:51.510Z,12.20
2018-10-11T21:43:06.021Z,12.10
2018-10-11T21:48:29.851Z,12.50
2018-10-11T21:53:41.422Z,12.00
2018-10-11T22:04:18.965Z,13.30
2018-10-11T22:20:22.362Z,12.80
2018-10-11T22:25:29.663Z,11.50
2018-10-11T22:41:12.701Z,13.90
2018-10-11T22:46:30.650Z,11.70
2018-10-11T23:17:58.485Z,13.70
2018-10-11T23:23:17.788Z,12.50
2018-10-11T23:39:09.554Z,14.60
2018-10-11T23:44:37.711Z,13.80
